sensor_id;sensor_type;location;lat;lon;timestamp;temperature;humidity
20777;DHT22;10548;47.504;8.248;2023-12-20T00:00:37;3.50;99.90
20777;DHT22;10548;47.504;8.248;2023-12-20T00:03:06;3.60;99.90
20777;DHT22;10548;47.504;8.248;2023-12-20T00:05:33;3.70;99.90
20777;DHT22;10548;47.504;8.248;2023-12-20T00:08:02;3.70;99.90
20777;DHT22;10548;47.504;8.248;2023-12-20T00:10:29;3.70;99.90
20777;DHT22;10548;47.504;8.248;2023-12-20T00:12:56;3.60;99.90
20777;DHT22;10548;47.504;8.248;2023-12-20T00:15:23;3.60;99.90
20777;DHT22;10548;47.504;8.248;2023-12-20T00:17:50;3.60;99.90
20777;DHT22;10548;47.504;8.248;2023-12-20T00:20:17;3.60;99.90
20777;DHT22;10548;47.504;8.248;2023-12-20T00:22:45;3.60;99.90
20777;DHT22;10548;47.504;8.248;2023-12-20T00:25:12;3.60;99.90
20777;DHT22;10548;47.504;8.248;2023-12-20T00:27:39;3.60;99.90
20777;DHT22;10548;47.504;8.248;2023-12-20T00:30:07;3.60;99.90
20777;DHT22;10548;47.504;8.248;2023-12-20T00:32:35;3.60;99.90
20777;DHT22;10548;47.504;8.248;2023-12-20T00:35:03;3.60;99.90
20777;DHT22;10548;47.504;8.248;2023-12-20T00:37:30;3.70;99.90
20777;DHT22;10548;47.504;8.248;2023-12-20T00:39:57;3.70;99.90
20777;DHT22;10548;47.504;8.248;2023-12-20T00:42:24;3.60;99.90
20777;DHT22;10548;47.504;8.248;2023-12-20T00:44:51;3.40;99.90
20777;DHT22;10548;47.504;8.248;2023-12-20T00:47:18;3.40;99.90
20777;DHT22;10548;47.504;8.248;2023-12-20T00:49:45;3.40;99.90
20777;DHT22;10548;47.504;8.248;2023-12-20T00:52:12;3.40;99.90
20777;DHT22;10548;47.504;8.248;2023-12-20T00:54:40;3.50;99.90
20777;DHT22;10548;47.504;8.248;2023-12-20T00:57:07;3.50;99.90
20777;DHT22;10548;47.504;8.248;2023-12-20T00:59:34;3.40;99.90
20777;DHT22;10548;47.504;8.248;2023-12-20T01:02:01;3.40;99.90
20777;DHT22;10548;47.504;8.248;2023-12-20T01:04:29;3.50;99.90
20777;DHT22;10548;47.504;8.248;2023-12-20T01:06:56;3.50;99.90
20777;DHT22;10548;47.504;8.248;2023-12-20T01:09:23;3.60;99.90
20777;DHT22;10548;47.504;8.248;2023-12-20T01:11:53;3.60;99.90
20777;DHT22;10548;47.504;8.248;2023-12-20T01:14:20;3.60;99.90
20777;DHT22;10548;47.504;8.248;2023-12-20T01:16:47;3.60;99.90
20777;DHT22;10548;47.504;8.248;2023-12-20T01:19:14;3.70;99.90
20777;DHT22;10548;47.504;8.248;2023-12-20T01:21:41;3.70;99.90
20777;DHT22;10548;47.504;8.248;2023-12-20T01:24:08;3.70;99.90
20777;DHT22;10548;47.504;8.248;2023-12-20T01:26:35;3.70;99.90
20777;DHT22;10548;47.504;8.248;2023-12-20T01:29:03;3.70;99.90
20777;DHT22;10548;47.504;8.248;2023-12-20T01:31:30;3.70;99.90
20777;DHT22;10548;47.504;8.248;2023-12-20T01:33:57;3.80;99.90
20777;DHT22;10548;47.504;8.248;2023-12-20T01:36:24;3.80;99.90
20777;DHT22;10548;47.504;8.248;2023-12-20T01:38:51;3.80;99.90
20777;DHT22;10548;47.504;8.248;2023-12-20T01:41:18;3.90;99.90
20777;DHT22;10548;47.504;8.248;2023-12-20T01:43:45;3.90;99.90
20777;DHT22;10548;47.504;8.248;2023-12-20T01:46:19;4.00;99.90
20777;DHT22;10548;47.504;8.248;2023-12-20T01:48:48;4.10;99.90
20777;DHT22;10548;47.504;8.248;2023-12-20T01:51:15;4.10;99.90
20777;DHT22;10548;47.504;8.248;2023-12-20T01:53:43;4.00;99.90
20777;DHT22;10548;47.504;8.248;2023-12-20T01:56:11;4.00;99.90
20777;DHT22;10548;47.504;8.248;2023-12-20T01:58:43;4.00;99.90
20777;DHT22;10548;47.504;8.248;2023-12-20T02:01:11;4.00;99.90
20777;DHT22;10548;47.504;8.248;2023-12-20T02:03:42;4.00;99.90
20777;DHT22;10548;47.504;8.248;2023-12-20T02:06:10;4.00;99.90
20777;DHT22;10548;47.504;8.248;2023-12-20T02:08:37;4.00;99.90
20777;DHT22;10548;47.504;8.248;2023-12-20T02:11:04;4.00;99.90
20777;DHT22;10548;47.504;8.248;2023-12-20T02:13:32;4.10;99.90
20777;DHT22;10548;47.504;8.248;2023-12-20T02:15:59;4.10;99.90
20777;DHT22;10548;47.504;8.248;2023-12-20T02:18:27;4.20;99.90
20777;DHT22;10548;47.504;8.248;2023-12-20T02:20:54;4.10;99.90
20777;DHT22;10548;47.504;8.248;2023-12-20T02:23:22;4.20;99.90
20777;DHT22;10548;47.504;8.248;2023-12-20T02:25:49;4.20;99.90
20777;DHT22;10548;47.504;8.248;2023-12-20T02:28:16;4.30;99.90
20777;DHT22;10548;47.504;8.248;2023-12-20T02:30:44;4.30;99.90
20777;DHT22;10548;47.504;8.248;2023-12-20T02:33:12;4.30;99.90
20777;DHT22;10548;47.504;8.248;2023-12-20T02:35:40;4.20;99.90
20777;DHT22;10548;47.504;8.248;2023-12-20T02:38:07;4.20;99.90
20777;DHT22;10548;47.504;8.248;2023-12-20T02:40:34;4.20;99.90
20777;DHT22;10548;47.504;8.248;2023-12-20T02:43:01;4.20;99.90
20777;DHT22;10548;47.504;8.248;2023-12-20T02:45:28;4.10;99.90
20777;DHT22;10548;47.504;8.248;2023-12-20T02:47:55;4.10;99.90
20777;DHT22;10548;47.504;8.248;2023-12-20T02:50:22;4.00;99.90
20777;DHT22;10548;47.504;8.248;2023-12-20T02:52:49;4.00;99.90
20777;DHT22;10548;47.504;8.248;2023-12-20T02:55:16;4.00;99.90
20777;DHT22;10548;47.504;8.248;2023-12-20T02:57:44;3.90;99.90
20777;DHT22;10548;47.504;8.248;2023-12-20T03:00:12;4.00;99.90
20777;DHT22;10548;47.504;8.248;2023-12-20T03:02:39;4.00;99.90
20777;DHT22;10548;47.504;8.248;2023-12-20T03:05:07;4.10;99.90
20777;DHT22;10548;47.504;8.248;2023-12-20T03:07:34;4.00;99.90
20777;DHT22;10548;47.504;8.248;2023-12-20T03:10:03;4.10;99.90
20777;DHT22;10548;47.504;8.248;2023-12-20T03:12:46;4.10;99.90
20777;DHT22;10548;47.504;8.248;2023-12-20T03:15:13;4.00;99.90
20777;DHT22;10548;47.504;8.248;2023-12-20T03:17:40;4.00;99.90
20777;DHT22;10548;47.504;8.248;2023-12-20T03:20:08;4.00;99.90
20777;DHT22;10548;47.504;8.248;2023-12-20T03:22:35;4.00;99.90
20777;DHT22;10548;47.504;8.248;2023-12-20T03:25:02;4.10;99.90
20777;DHT22;10548;47.504;8.248;2023-12-20T03:27:30;4.10;99.90
20777;DHT22;10548;47.504;8.248;2023-12-20T03:29:57;4.10;99.90
20777;DHT22;10548;47.504;8.248;2023-12-20T03:32:24;4.10;99.90
20777;DHT22;10548;47.504;8.248;2023-12-20T03:34:51;4.10;99.90
20777;DHT22;10548;47.504;8.248;2023-12-20T03:37:18;4.10;99.90
20777;DHT22;10548;47.504;8.248;2023-12-20T03:39:46;4.10;99.90
20777;DHT22;10548;47.504;8.248;2023-12-20T03:42:13;4.10;99.90
20777;DHT22;10548;47.504;8.248;2023-12-20T03:44:40;4.20;99.90
20777;DHT22;10548;47.504;8.248;2023-12-20T03:47:07;4.20;99.90
20777;DHT22;10548;47.504;8.248;2023-12-20T03:49:34;4.20;99.90
20777;DHT22;10548;47.504;8.248;2023-12-20T03:52:04;4.20;99.90
20777;DHT22;10548;47.504;8.248;2023-12-20T03:54:32;4.20;99.90
20777;DHT22;10548;47.504;8.248;2023-12-20T03:57:00;4.20;99.90
20777;DHT22;10548;47.504;8.248;2023-12-20T03:59:27;4.30;99.90
20777;DHT22;10548;47.504;8.248;2023-12-20T04:01:54;4.30;99.90
20777;DHT22;10548;47.504;8.248;2023-12-20T04:04:21;4.30;99.90
20777;DHT22;10548;47.504;8.248;2023-12-20T04:06:48;4.30;99.90
20777;DHT22;10548;47.504;8.248;2023-12-20T04:09:15;4.20;99.90
20777;DHT22;10548;47.504;8.248;2023-12-20T04:11:42;4.30;99.90
20777;DHT22;10548;47.504;8.248;2023-12-20T04:14:10;4.30;99.90
20777;DHT22;10548;47.504;8.248;2023-12-20T04:16:37;4.30;99.90
20777;DHT22;10548;47.504;8.248;2023-12-20T04:19:05;4.30;99.90
20777;DHT22;10548;47.504;8.248;2023-12-20T04:21:32;4.40;99.90
20777;DHT22;10548;47.504;8.248;2023-12-20T04:23:59;4.40;99.90
20777;DHT22;10548;47.504;8.248;2023-12-20T04:26:27;4.40;99.90
20777;DHT22;10548;47.504;8.248;2023-12-20T04:28:54;4.40;99.90
20777;DHT22;10548;47.504;8.248;2023-12-20T04:31:21;4.40;99.90
20777;DHT22;10548;47.504;8.248;2023-12-20T04:33:48;4.50;99.90
20777;DHT22;10548;47.504;8.248;2023-12-20T04:36:15;4.50;99.90
20777;DHT22;10548;47.504;8.248;2023-12-20T04:38:42;4.50;99.90
20777;DHT22;10548;47.504;8.248;2023-12-20T04:41:09;4.50;99.90
20777;DHT22;10548;47.504;8.248;2023-12-20T04:43:36;4.50;99.90
20777;DHT22;10548;47.504;8.248;2023-12-20T04:46:04;4.50;99.90
20777;DHT22;10548;47.504;8.248;2023-12-20T04:48:31;4.50;99.90
20777;DHT22;10548;47.504;8.248;2023-12-20T04:50:58;4.50;99.90
20777;DHT22;10548;47.504;8.248;2023-12-20T04:53:25;4.50;99.90
20777;DHT22;10548;47.504;8.248;2023-12-20T04:55:52;4.50;99.90
20777;DHT22;10548;47.504;8.248;2023-12-20T04:58:20;4.50;99.90
20777;DHT22;10548;47.504;8.248;2023-12-20T05:00:47;4.50;99.90
20777;DHT22;10548;47.504;8.248;2023-12-20T05:03:14;4.50;99.90
20777;DHT22;10548;47.504;8.248;2023-12-20T05:05:41;4.60;99.90
20777;DHT22;10548;47.504;8.248;2023-12-20T05:08:08;4.60;99.90
20777;DHT22;10548;47.504;8.248;2023-12-20T05:10:36;4.60;99.90
20777;DHT22;10548;47.504;8.248;2023-12-20T05:13:03;4.60;99.90
20777;DHT22;10548;47.504;8.248;2023-12-20T05:15:30;4.70;99.90
20777;DHT22;10548;47.504;8.248;2023-12-20T05:17:58;4.70;99.90
20777;DHT22;10548;47.504;8.248;2023-12-20T05:20:25;4.70;99.90
20777;DHT22;10548;47.504;8.248;2023-12-20T05:22:52;4.70;99.90
20777;DHT22;10548;47.504;8.248;2023-12-20T05:25:19;4.70;99.90
20777;DHT22;10548;47.504;8.248;2023-12-20T05:27:46;4.80;99.90
20777;DHT22;10548;47.504;8.248;2023-12-20T05:30:14;4.70;99.90
20777;DHT22;10548;47.504;8.248;2023-12-20T05:32:41;4.70;99.90
20777;DHT22;10548;47.504;8.248;2023-12-20T05:35:08;4.80;99.90
20777;DHT22;10548;47.504;8.248;2023-12-20T05:37:36;4.80;99.90
20777;DHT22;10548;47.504;8.248;2023-12-20T05:40:03;4.80;99.90
20777;DHT22;10548;47.504;8.248;2023-12-20T05:42:31;4.80;99.90
20777;DHT22;10548;47.504;8.248;2023-12-20T05:44:58;4.80;99.90
20777;DHT22;10548;47.504;8.248;2023-12-20T05:47:25;4.80;99.90
20777;DHT22;10548;47.504;8.248;2023-12-20T05:49:53;4.90;99.90
20777;DHT22;10548;47.504;8.248;2023-12-20T05:52:20;4.80;99.90
20777;DHT22;10548;47.504;8.248;2023-12-20T05:54:47;4.90;99.90
20777;DHT22;10548;47.504;8.248;2023-12-20T05:57:14;4.80;99.90
20777;DHT22;10548;47.504;8.248;2023-12-20T05:59:41;4.80;99.90
20777;DHT22;10548;47.504;8.248;2023-12-20T06:02:08;4.80;99.90
20777;DHT22;10548;47.504;8.248;2023-12-20T06:04:36;4.80;99.90
20777;DHT22;10548;47.504;8.248;2023-12-20T06:07:03;4.80;99.90
20777;DHT22;10548;47.504;8.248;2023-12-20T06:09:30;4.80;99.90
20777;DHT22;10548;47.504;8.248;2023-12-20T06:11:58;4.80;99.90
20777;DHT22;10548;47.504;8.248;2023-12-20T06:14:25;4.70;99.90
20777;DHT22;10548;47.504;8.248;2023-12-20T06:16:52;4.80;99.90
20777;DHT22;10548;47.504;8.248;2023-12-20T06:19:19;4.80;99.90
20777;DHT22;10548;47.504;8.248;2023-12-20T06:21:46;4.80;99.90
20777;DHT22;10548;47.504;8.248;2023-12-20T06:24:13;4.70;99.90
20777;DHT22;10548;47.504;8.248;2023-12-20T06:26:40;4.80;99.90
20777;DHT22;10548;47.504;8.248;2023-12-20T06:29:08;4.80;99.90
20777;DHT22;10548;47.504;8.248;2023-12-20T06:31:35;4.80;99.90
20777;DHT22;10548;47.504;8.248;2023-12-20T06:34:02;4.80;99.90
20777;DHT22;10548;47.504;8.248;2023-12-20T06:36:30;4.80;99.90
20777;DHT22;10548;47.504;8.248;2023-12-20T06:38:57;4.80;99.90
20777;DHT22;10548;47.504;8.248;2023-12-20T06:41:24;4.80;99.90
20777;DHT22;10548;47.504;8.248;2023-12-20T06:43:52;4.80;99.90
20777;DHT22;10548;47.504;8.248;2023-12-20T06:46:20;4.80;99.90
20777;DHT22;10548;47.504;8.248;2023-12-20T06:48:47;4.80;99.90
20777;DHT22;10548;47.504;8.248;2023-12-20T06:51:15;4.80;99.90
20777;DHT22;10548;47.504;8.248;2023-12-20T06:53:43;4.80;99.90
20777;DHT22;10548;47.504;8.248;2023-12-20T06:56:11;4.80;99.90
20777;DHT22;10548;47.504;8.248;2023-12-20T06:58:43;4.80;99.90
20777;DHT22;10548;47.504;8.248;2023-12-20T07:01:14;4.80;99.90
20777;DHT22;10548;47.504;8.248;2023-12-20T07:03:42;4.80;99.90
20777;DHT22;10548;47.504;8.248;2023-12-20T07:06:09;4.80;99.90
20777;DHT22;10548;47.504;8.248;2023-12-20T07:08:36;4.90;99.90
20777;DHT22;10548;47.504;8.248;2023-12-20T07:11:04;4.90;99.90
20777;DHT22;10548;47.504;8.248;2023-12-20T07:13:31;4.90;99.90
20777;DHT22;10548;47.504;8.248;2023-12-20T07:15:58;4.90;99.90
20777;DHT22;10548;47.504;8.248;2023-12-20T07:18:25;4.90;99.90
20777;DHT22;10548;47.504;8.248;2023-12-20T07:20:52;5.00;99.90
20777;DHT22;10548;47.504;8.248;2023-12-20T07:23:21;5.10;99.90
20777;DHT22;10548;47.504;8.248;2023-12-20T07:25:48;5.10;99.90
20777;DHT22;10548;47.504;8.248;2023-12-20T07:28:15;5.10;99.90
20777;DHT22;10548;47.504;8.248;2023-12-20T07:30:42;5.10;99.90
20777;DHT22;10548;47.504;8.248;2023-12-20T07:33:10;5.20;99.90
20777;DHT22;10548;47.504;8.248;2023-12-20T07:35:39;5.10;99.90
20777;DHT22;10548;47.504;8.248;2023-12-20T07:38:06;5.10;99.90
20777;DHT22;10548;47.504;8.248;2023-12-20T07:40:33;5.20;99.90
20777;DHT22;10548;47.504;8.248;2023-12-20T07:43:01;5.20;99.90
20777;DHT22;10548;47.504;8.248;2023-12-20T07:45:28;5.20;99.90
20777;DHT22;10548;47.504;8.248;2023-12-20T07:47:55;5.10;99.90
20777;DHT22;10548;47.504;8.248;2023-12-20T07:50:22;5.10;99.90
20777;DHT22;10548;47.504;8.248;2023-12-20T07:52:49;5.10;99.90
20777;DHT22;10548;47.504;8.248;2023-12-20T07:55:16;5.20;99.90
20777;DHT22;10548;47.504;8.248;2023-12-20T07:57:43;5.20;99.90
20777;DHT22;10548;47.504;8.248;2023-12-20T08:00:11;5.20;99.90
20777;DHT22;10548;47.504;8.248;2023-12-20T08:02:39;5.20;99.90
20777;DHT22;10548;47.504;8.248;2023-12-20T08:05:06;5.20;99.90
20777;DHT22;10548;47.504;8.248;2023-12-20T08:07:33;5.30;99.90
20777;DHT22;10548;47.504;8.248;2023-12-20T08:10:01;5.30;99.90
20777;DHT22;10548;47.504;8.248;2023-12-20T08:12:28;5.40;99.90
20777;DHT22;10548;47.504;8.248;2023-12-20T08:14:55;5.40;99.90
20777;DHT22;10548;47.504;8.248;2023-12-20T08:17:24;5.30;99.90
20777;DHT22;10548;47.504;8.248;2023-12-20T08:19:51;5.40;99.90
20777;DHT22;10548;47.504;8.248;2023-12-20T08:22:18;5.40;99.90
20777;DHT22;10548;47.504;8.248;2023-12-20T08:24:45;5.50;99.90
20777;DHT22;10548;47.504;8.248;2023-12-20T08:27:13;5.50;99.90
20777;DHT22;10548;47.504;8.248;2023-12-20T08:29:40;5.50;99.90
20777;DHT22;10548;47.504;8.248;2023-12-20T08:32:07;5.50;99.90
20777;DHT22;10548;47.504;8.248;2023-12-20T08:34:34;5.60;99.90
20777;DHT22;10548;47.504;8.248;2023-12-20T08:37:01;5.60;99.90
20777;DHT22;10548;47.504;8.248;2023-12-20T08:39:28;5.70;99.90
20777;DHT22;10548;47.504;8.248;2023-12-20T08:41:58;5.70;99.90
20777;DHT22;10548;47.504;8.248;2023-12-20T08:44:25;5.80;99.90
20777;DHT22;10548;47.504;8.248;2023-12-20T08:46:52;5.80;99.90
20777;DHT22;10548;47.504;8.248;2023-12-20T08:49:19;5.80;99.90
20777;DHT22;10548;47.504;8.248;2023-12-20T08:51:47;5.80;99.90
20777;DHT22;10548;47.504;8.248;2023-12-20T08:54:14;5.90;99.90
20777;DHT22;10548;47.504;8.248;2023-12-20T08:56:43;5.90;99.90
20777;DHT22;10548;47.504;8.248;2023-12-20T08:59:10;6.00;99.90
20777;DHT22;10548;47.504;8.248;2023-12-20T09:01:37;6.00;99.90
20777;DHT22;10548;47.504;8.248;2023-12-20T09:04:04;6.10;99.90
20777;DHT22;10548;47.504;8.248;2023-12-20T09:06:33;6.20;99.90
20777;DHT22;10548;47.504;8.248;2023-12-20T09:09:00;6.00;99.90
20777;DHT22;10548;47.504;8.248;2023-12-20T09:11:28;6.00;99.90
20777;DHT22;10548;47.504;8.248;2023-12-20T09:13:55;6.10;99.90
20777;DHT22;10548;47.504;8.248;2023-12-20T09:16:22;6.10;99.90
20777;DHT22;10548;47.504;8.248;2023-12-20T09:18:49;6.10;99.90
20777;DHT22;10548;47.504;8.248;2023-12-20T09:21:17;6.10;99.90
20777;DHT22;10548;47.504;8.248;2023-12-20T09:23:44;6.20;99.90
20777;DHT22;10548;47.504;8.248;2023-12-20T09:26:11;6.20;99.90
20777;DHT22;10548;47.504;8.248;2023-12-20T09:28:38;6.10;99.90
20777;DHT22;10548;47.504;8.248;2023-12-20T09:31:07;6.00;99.90
20777;DHT22;10548;47.504;8.248;2023-12-20T09:33:34;6.10;99.90
20777;DHT22;10548;47.504;8.248;2023-12-20T09:36:02;6.30;99.90
20777;DHT22;10548;47.504;8.248;2023-12-20T09:38:29;6.50;99.90
20777;DHT22;10548;47.504;8.248;2023-12-20T09:40:56;6.50;99.90
20777;DHT22;10548;47.504;8.248;2023-12-20T09:43:24;6.40;99.90
20777;DHT22;10548;47.504;8.248;2023-12-20T09:45:53;6.30;99.90
20777;DHT22;10548;47.504;8.248;2023-12-20T09:48:21;6.30;99.90
20777;DHT22;10548;47.504;8.248;2023-12-20T09:50:48;6.20;99.90
20777;DHT22;10548;47.504;8.248;2023-12-20T09:53:20;6.20;99.90
20777;DHT22;10548;47.504;8.248;2023-12-20T09:55:48;6.30;99.90
20777;DHT22;10548;47.504;8.248;2023-12-20T09:58:16;6.20;99.90
20777;DHT22;10548;47.504;8.248;2023-12-20T10:00:43;6.20;99.90
20777;DHT22;10548;47.504;8.248;2023-12-20T10:03:11;6.20;99.90
20777;DHT22;10548;47.504;8.248;2023-12-20T10:05:43;6.40;99.90
20777;DHT22;10548;47.504;8.248;2023-12-20T10:08:12;6.40;99.90
20777;DHT22;10548;47.504;8.248;2023-12-20T10:10:39;6.50;99.90
20777;DHT22;10548;47.504;8.248;2023-12-20T10:13:15;6.50;99.90
20777;DHT22;10548;47.504;8.248;2023-12-20T10:15:42;6.40;99.90
20777;DHT22;10548;47.504;8.248;2023-12-20T10:18:11;6.30;99.90
20777;DHT22;10548;47.504;8.248;2023-12-20T10:20:40;6.30;99.90
20777;DHT22;10548;47.504;8.248;2023-12-20T10:23:08;6.40;99.90
20777;DHT22;10548;47.504;8.248;2023-12-20T10:25:35;6.40;99.90
20777;DHT22;10548;47.504;8.248;2023-12-20T10:28:15;6.50;99.90
20777;DHT22;10548;47.504;8.248;2023-12-20T10:30:47;6.40;99.90
20777;DHT22;10548;47.504;8.248;2023-12-20T10:33:26;6.40;99.90
20777;DHT22;10548;47.504;8.248;2023-12-20T10:35:55;6.60;99.90
20777;DHT22;10548;47.504;8.248;2023-12-20T10:38:22;6.60;99.90
20777;DHT22;10548;47.504;8.248;2023-12-20T10:40:54;6.60;99.90
20777;DHT22;10548;47.504;8.248;2023-12-20T10:48:21;6.60;99.90
20777;DHT22;10548;47.504;8.248;2023-12-20T10:50:55;6.70;99.90
20777;DHT22;10548;47.504;8.248;2023-12-20T10:53:24;6.70;99.90
20777;DHT22;10548;47.504;8.248;2023-12-20T10:55:54;6.80;99.90
20777;DHT22;10548;47.504;8.248;2023-12-20T10:58:22;6.80;99.90
20777;DHT22;10548;47.504;8.248;2023-12-20T11:00:57;6.80;99.90
20777;DHT22;10548;47.504;8.248;2023-12-20T11:03:26;6.90;99.90
20777;DHT22;10548;47.504;8.248;2023-12-20T11:06:45;6.90;99.90
20777;DHT22;10548;47.504;8.248;2023-12-20T11:09:10;6.90;99.90
20777;DHT22;10548;47.504;8.248;2023-12-20T11:12:01;7.00;99.90
20777;DHT22;10548;47.504;8.248;2023-12-20T11:14:53;7.20;99.90
20777;DHT22;10548;47.504;8.248;2023-12-20T11:17:22;7.10;99.90
20777;DHT22;10548;47.504;8.248;2023-12-20T11:20:17;7.00;99.90
20777;DHT22;10548;47.504;8.248;2023-12-20T11:22:54;6.90;99.90
20777;DHT22;10548;47.504;8.248;2023-12-20T11:28:08;6.80;99.90
20777;DHT22;10548;47.504;8.248;2023-12-20T11:33:24;6.70;99.90
20777;DHT22;10548;47.504;8.248;2023-12-20T11:35:56;6.70;99.90
20777;DHT22;10548;47.504;8.248;2023-12-20T11:40:54;6.70;99.90
20777;DHT22;10548;47.504;8.248;2023-12-20T11:43:38;6.70;99.90
20777;DHT22;10548;47.504;8.248;2023-12-20T11:46:07;6.80;99.90
20777;DHT22;10548;47.504;8.248;2023-12-20T11:53:41;6.60;99.90
20777;DHT22;10548;47.504;8.248;2023-12-20T11:56:11;7.00;99.90
20777;DHT22;10548;47.504;8.248;2023-12-20T11:58:39;9.00;99.90
20777;DHT22;10548;47.504;8.248;2023-12-20T12:06:03;10.30;95.80
20777;DHT22;10548;47.504;8.248;2023-12-20T12:08:32;10.70;99.10
20777;DHT22;10548;47.504;8.248;2023-12-20T12:10:59;10.90;96.20
20777;DHT22;10548;47.504;8.248;2023-12-20T12:18:22;13.80;78.10
20777;DHT22;10548;47.504;8.248;2023-12-20T12:20:49;13.40;78.50
20777;DHT22;10548;47.504;8.248;2023-12-20T12:23:23;14.00;76.60
20777;DHT22;10548;47.504;8.248;2023-12-20T12:25:51;13.40;74.50
20777;DHT22;10548;47.504;8.248;2023-12-20T12:40:50;10.20;91.10
20777;DHT22;10548;47.504;8.248;2023-12-20T13:10:34;9.10;94.70
20777;DHT22;10548;47.504;8.248;2023-12-20T13:52:27;8.50;90.80
20777;DHT22;10548;47.504;8.248;2023-12-20T13:54:55;8.40;92.10
20777;DHT22;10548;47.504;8.248;2023-12-20T13:57:22;11.50;83.50
20777;DHT22;10548;47.504;8.248;2023-12-20T14:47:08;10.20;68.70
20777;DHT22;10548;47.504;8.248;2023-12-20T14:49:35;11.30;57.70
20777;DHT22;10548;47.504;8.248;2023-12-20T15:04:32;11.20;62.00
20777;DHT22;10548;47.504;8.248;2023-12-20T15:06:59;10.00;67.50
20777;DHT22;10548;47.504;8.248;2023-12-20T15:09:28;10.40;66.20
20777;DHT22;10548;47.504;8.248;2023-12-20T15:11:56;10.30;66.80
20777;DHT22;10548;47.504;8.248;2023-12-20T15:58:49;9.60;73.40
20777;DHT22;10548;47.504;8.248;2023-12-20T16:03:46;5.60;99.90
20777;DHT22;10548;47.504;8.248;2023-12-20T16:08:52;5.50;99.90
20777;DHT22;10548;47.504;8.248;2023-12-20T16:16:14;5.30;99.90
20777;DHT22;10548;47.504;8.248;2023-12-20T16:18:41;5.30;99.90
20777;DHT22;10548;47.504;8.248;2023-12-20T21:13:26;4.30;99.90
20777;DHT22;10548;47.504;8.248;2023-12-20T21:50:21;4.40;99.90
20777;DHT22;10548;47.504;8.248;2023-12-20T21:52:49;4.40;99.90
20777;DHT22;10548;47.504;8.248;2023-12-20T22:05:07;4.50;99.90
20777;DHT22;10548;47.504;8.248;2023-12-20T22:07:34;4.40;99.90
20777;DHT22;10548;47.504;8.248;2023-12-20T22:10:02;4.40;99.90
20777;DHT22;10548;47.504;8.248;2023-12-20T22:14:56;4.40;99.90
20777;DHT22;10548;47.504;8.248;2023-12-20T22:17:23;4.50;99.90
20777;DHT22;10548;47.504;8.248;2023-12-20T22:19:50;4.50;99.90
20777;DHT22;10548;47.504;8.248;2023-12-20T22:22:18;4.50;99.90
20777;DHT22;10548;47.504;8.248;2023-12-20T22:24:45;4.50;99.90
20777;DHT22;10548;47.504;8.248;2023-12-20T22:27:12;4.60;99.90
20777;DHT22;10548;47.504;8.248;2023-12-20T22:29:40;4.60;99.90
20777;DHT22;10548;47.504;8.248;2023-12-20T22:32:07;4.50;99.90
20777;DHT22;10548;47.504;8.248;2023-12-20T22:34:35;4.50;99.90
20777;DHT22;10548;47.504;8.248;2023-12-20T22:37:02;4.50;99.90
20777;DHT22;10548;47.504;8.248;2023-12-20T22:39:30;4.50;99.90
20777;DHT22;10548;47.504;8.248;2023-12-20T22:41:57;4.50;99.90
20777;DHT22;10548;47.504;8.248;2023-12-20T22:44:24;4.50;99.90
20777;DHT22;10548;47.504;8.248;2023-12-20T22:46:52;4.60;99.90
20777;DHT22;10548;47.504;8.248;2023-12-20T22:49:22;4.50;99.90
20777;DHT22;10548;47.504;8.248;2023-12-20T22:51:49;4.50;99.90
20777;DHT22;10548;47.504;8.248;2023-12-20T22:56:43;4.60;99.90
20777;DHT22;10548;47.504;8.248;2023-12-20T23:21:33;4.80;99.90
20777;DHT22;10548;47.504;8.248;2023-12-20T23:24:01;4.80;99.90
20777;DHT22;10548;47.504;8.248;2023-12-20T23:28:56;4.80;99.90
20777;DHT22;10548;47.504;8.248;2023-12-20T23:31:24;4.80;99.90
20777;DHT22;10548;47.504;8.248;2023-12-20T23:33:51;4.90;99.90
20777;DHT22;10548;47.504;8.248;2023-12-20T23:43:41;4.90;99.90
20777;DHT22;10548;47.504;8.248;2023-12-20T23:48:36;4.80;99.90
20777;DHT22;10548;47.504;8.248;2023-12-20T23:51:03;4.80;99.90
20777;DHT22;10548;47.504;8.248;2023-12-20T23:58:25;4.90;99.90
